Аэропорт: Иркутск. Иркутск

ICAO: UIII

METAR:
2020-06-01 02:30:00
UIII 010230Z VRB01MPS CAVOK 14/09 Q1002 R12/CLRD60 NOSIG RMK QFE710/0946
METAR:
2020-05-31 23:00:00
TAF UIII 312300Z 0100/0124 30005MPS 9999 BKN015CB TEMPO 0100/0112 VRB12MPS -TSRA BKN009CB BECMG 0112/0114 32010G15MPS TEMPO 0114/0124 2500 -SHRA BKN007CB